Station Historical Data
 
Daily Summary for February 23, 2019 Units:  English    Metric   Both
Next Day »
Daily Weekly Monthly Yearly Custom
  Current: High: Low: Average:
Temperature: 35.2 °F 37.0 °F 35.2 °F 36 °F
Dew Point: 30.9 °F 32.4 °F 30.9 °F 31.8 °F
Humidity: 84% 86% 83% 85%
Wind Speed: 0.0mph 0.0mph 0.0mph 0mph
Wind Gust: 0.0mph 4.6mph - -
WindCalm - - North
Pressure: 30.08 in 30.08 in 30.06 in -
Precipitation: 0.00 in      
Historical Graphs
 
 
Tabular Data for February 23, 2019
Time Temperature Dew Point Pressure Wind Wind Speed Wind Gust Humidity Rainfall Rate (Hourly)
02:47 37.0 °F 32.4 °F 30.06 in Calm     83% 0.00 in
02:54 36.7 °F 32.0 °F 30.06 in Calm     83% 0.00 in
02:59 36.5 °F 31.8 °F 30.06 in Calm     83% 0.00 in
03:04 36.3 °F 31.9 °F 30.06 in Calm     84% 0.00 in
03:09 36.0 °F 31.6 °F 30.06 in Calm   2.3 mph 84% 0.00 in
03:14 36.0 °F 31.9 °F 30.06 in Calm     85% 0.00 in
03:19 35.8 °F 31.7 °F 30.06 in Calm     85% 0.00 in
03:24 35.8 °F 31.7 °F 30.06 in Calm     85% 0.00 in
03:29 35.4 °F 31.4 °F 30.06 in Calm     85% 0.00 in
03:34 35.8 °F 32.0 °F 30.06 in Calm     86% 0.00 in
03:39 35.8 °F 31.7 °F 30.06 in Calm     85% 0.00 in
03:44 35.8 °F 31.7 °F 30.06 in Calm     85% 0.00 in
03:49 36.0 °F 32.2 °F 30.06 in Calm     86% 0.00 in
03:54 36.0 °F 32.2 °F 30.06 in Calm     86% 0.00 in
03:59 36.0 °F 31.9 °F 30.06 in Calm     85% 0.00 in
04:04 36.1 °F 32.1 °F 30.06 in Calm     85% 0.00 in
04:09 36.1 °F 32.1 °F 30.06 in Calm     85% 0.00 in
04:14 36.1 °F 32.1 °F 30.06 in Calm   1.8 mph 85% 0.00 in
04:19 36.1 °F 32.1 °F 30.06 in Calm     85% 0.00 in
04:24 36.3 °F 31.9 °F 30.06 in Calm     84% 0.00 in
04:29 36.3 °F 32.2 °F 30.06 in Calm     85% 0.00 in
04:34 36.3 °F 32.2 °F 30.07 in Calm   2.3 mph 85% 0.00 in
04:39 36.3 °F 31.9 °F 30.07 in Calm   1.2 mph 84% 0.00 in
04:44 36.3 °F 31.9 °F 30.07 in Calm     84% 0.00 in
04:49 36.1 °F 31.8 °F 30.07 in Calm     84% 0.00 in
04:54 36.1 °F 31.8 °F 30.07 in Calm   4.6 mph 84% 0.00 in
04:59 36.1 °F 31.8 °F 30.07 in Calm     84% 0.00 in
05:04 36.1 °F 31.8 °F 30.07 in Calm     84% 0.00 in
05:09 36.0 °F 31.6 °F 30.07 in Calm     84% 0.00 in
05:14 35.8 °F 31.4 °F 30.07 in Calm     84% 0.00 in
05:19 35.8 °F 31.4 °F 30.08 in Calm     84% 0.00 in
05:24 35.4 °F 31.1 °F 30.08 in Calm     84% 0.00 in
05:29 35.2 °F 30.9 °F 30.08 in Calm     84% 0.00 in
Amateur Radio Station WA6MVG